createdAt,value
2023-05-25T00:01:24.576Z,100465.00
2023-05-25T00:06:27.881Z,100476.47
2023-05-25T00:11:29.562Z,100480.28
2023-05-25T00:16:31.868Z,100488.00
2023-05-25T00:21:38.339Z,100481.50
2023-05-25T00:26:40.105Z,100485.75
2023-05-25T00:31:41.839Z,100478.47
2023-05-25T00:36:43.566Z,100474.78
2023-05-25T00:41:46.604Z,100467.13
2023-05-25T00:46:50.804Z,100460.19
2023-05-25T00:51:53.083Z,100452.84
2023-05-25T00:57:04.384Z,100464.44
2023-05-25T01:02:09.477Z,100467.06
2023-05-25T01:07:17.779Z,100470.50
2023-05-25T01:12:22.538Z,100477.44
2023-05-25T01:17:24.322Z,100470.31
2023-05-25T01:22:32.670Z,100471.78
2023-05-25T01:27:46.908Z,100475.38
2023-05-25T01:32:49.613Z,100486.25
2023-05-25T01:37:52.577Z,100491.50
2023-05-25T01:42:54.366Z,100489.28
2023-05-25T01:48:24.031Z,100493.25
2023-05-25T01:53:31.481Z,100494.88
2023-05-25T01:58:38.771Z,100489.09
2023-05-25T02:03:42.036Z,100485.81
2023-05-25T02:08:45.782Z,100480.13
2023-05-25T02:13:47.539Z,100482.81
2023-05-25T02:18:50.919Z,100494.31
2023-05-25T02:23:54.059Z,100502.69
2023-05-25T02:28:55.712Z,100508.28
2023-05-25T02:33:57.538Z,100506.47
2023-05-25T02:39:01.433Z,100515.16
2023-05-25T02:44:03.812Z,100498.94
2023-05-25T02:49:06.505Z,100515.41
2023-05-25T02:54:09.741Z,100515.31
2023-05-25T02:59:11.464Z,100514.94
2023-05-25T03:04:14.276Z,100521.88
2023-05-25T03:09:16.215Z,100525.25
2023-05-25T03:14:18.056Z,100530.13
2023-05-25T03:19:27.322Z,100528.41
2023-05-25T03:24:29.207Z,100525.13
2023-05-25T03:29:34.973Z,100527.03
2023-05-25T03:34:37.497Z,100543.22
2023-05-25T03:39:40.858Z,100541.59
2023-05-25T03:44:42.617Z,100549.91
2023-05-25T03:49:45.138Z,100554.84
2023-05-25T03:54:47.912Z,100566.97
2023-05-25T03:59:49.554Z,100567.72
2023-05-25T04:04:52.093Z,100561.53
2023-05-25T04:09:53.796Z,100570.72
2023-05-25T04:14:56.470Z,100569.75
2023-05-25T04:19:59.879Z,100586.31
2023-05-25T04:25:02.363Z,100581.19
2023-05-25T04:30:05.058Z,100581.91
2023-05-25T04:35:28.465Z,100572.59
2023-05-25T04:40:33.259Z,100582.19
2023-05-25T04:45:35.519Z,100580.50
2023-05-25T04:50:40.196Z,100585.03
2023-05-25T04:55:43.102Z,100586.75
2023-05-25T05:00:45.580Z,100589.91
2023-05-25T05:05:47.544Z,100579.25
2023-05-25T05:10:54.909Z,100570.75
2023-05-25T05:15:58.560Z,100577.19
2023-05-25T05:21:00.510Z,100566.69
2023-05-25T05:26:04.942Z,100566.91
2023-05-25T05:31:07.559Z,100567.31
2023-05-25T05:36:10.287Z,100566.84
2023-05-25T05:41:14.513Z,100566.53
2023-05-25T05:46:21.150Z,100577.00
2023-05-25T05:51:22.859Z,100564.56
2023-05-25T05:56:24.643Z,100574.97
2023-05-25T06:01:26.335Z,100575.38
2023-05-25T06:06:28.661Z,100572.66
2023-05-25T06:11:31.450Z,100583.25
2023-05-25T06:16:33.420Z,100581.06
2023-05-25T06:21:35.212Z,100580.19
2023-05-25T06:26:36.885Z,100568.25
2023-05-25T06:31:38.757Z,100570.03
2023-05-25T06:36:41.784Z,100577.53
2023-05-25T06:41:44.916Z,100569.72
2023-05-25T06:46:52.685Z,100576.53
2023-05-25T06:51:54.428Z,100577.09
2023-05-25T06:56:56.183Z,100568.13
2023-05-25T07:01:59.163Z,100577.59
2023-05-25T07:07:01.107Z,100568.75
2023-05-25T07:17:04.632Z,100573.50
2023-05-25T07:22:06.341Z,100563.72
2023-05-25T07:27:08.332Z,100567.78
2023-05-25T07:32:09.977Z,100560.19
2023-05-25T07:37:11.650Z,100555.38
2023-05-25T07:42:13.311Z,100553.88
2023-05-25T07:47:15.044Z,100559.69
2023-05-25T07:52:16.838Z,100553.00
2023-05-25T07:57:18.557Z,100545.19
2023-05-25T08:02:20.292Z,100563.44
2023-05-25T08:07:22.029Z,100565.25
2023-05-25T08:12:38.501Z,100564.13
2023-05-25T08:17:45.783Z,100562.25
2023-05-25T08:22:47.502Z,100554.53
2023-05-25T08:27:49.261Z,100566.94
2023-05-25T08:32:51.169Z,100558.84
2023-05-25T08:37:52.859Z,100568.09
2023-05-25T08:42:54.819Z,100566.28
2023-05-25T08:48:01.097Z,100559.78
2023-05-25T08:53:08.307Z,100557.50
2023-05-25T08:58:19.836Z,100547.66
2023-05-25T09:03:22.233Z,100563.34
2023-05-25T09:08:25.012Z,100558.19
2023-05-25T09:13:26.868Z,100551.75
2023-05-25T09:18:28.669Z,100555.38
2023-05-25T09:23:30.712Z,100562.13
2023-05-25T09:28:32.394Z,100563.78
2023-05-25T09:33:36.822Z,100568.06
2023-05-25T09:38:40.515Z,100573.56
2023-05-25T09:43:48.904Z,100573.25
2023-05-25T09:49:00.490Z,100573.91
2023-05-25T09:54:04.130Z,100569.44
2023-05-25T09:59:06.641Z,100581.94
2023-05-25T10:04:08.359Z,100581.88
2023-05-25T10:09:14.024Z,100582.88
2023-05-25T10:14:22.646Z,100578.94
2023-05-25T10:19:57.278Z,100579.16
2023-05-25T10:25:29.126Z,100580.88
2023-05-25T10:30:32.729Z,100580.13
2023-05-25T10:35:46.629Z,100566.94
2023-05-25T10:40:51.530Z,100570.75
2023-05-25T10:45:55.508Z,100573.00
2023-05-25T10:50:57.291Z,100567.91
2023-05-25T10:56:04.866Z,100565.13
2023-05-25T11:01:12.166Z,100560.28
2023-05-25T11:06:15.807Z,100560.81
2023-05-25T11:11:17.776Z,100553.94
2023-05-25T11:16:20.196Z,100547.28
2023-05-25T11:21:27.730Z,100541.94
2023-05-25T11:26:31.030Z,100555.13
2023-05-25T11:31:39.634Z,100540.59
2023-05-25T11:36:44.131Z,100547.28
2023-05-25T11:41:52.075Z,100545.56
2023-05-25T11:46:57.599Z,100536.09
2023-05-25T11:52:00.189Z,100524.44
2023-05-25T11:57:02.704Z,100524.69
2023-05-25T12:02:04.807Z,100521.00
2023-05-25T12:07:07.937Z,100519.69
2023-05-25T12:12:09.660Z,100518.22
2023-05-25T12:17:11.613Z,100516.81
2023-05-25T12:22:14.273Z,100506.63
2023-05-25T12:27:20.586Z,100507.81
2023-05-25T12:32:22.298Z,100500.81
2023-05-25T12:37:24.216Z,100493.44
2023-05-25T12:42:31.319Z,100482.63
2023-05-25T12:47:33.006Z,100485.75
2023-05-25T12:52:46.553Z,100489.06
2023-05-25T12:57:52.701Z,100482.69
2023-05-25T13:02:54.946Z,100482.84
2023-05-25T13:07:58.249Z,100480.34
2023-05-25T13:13:00.820Z,100478.81
2023-05-25T13:18:02.810Z,100473.97
2023-05-25T13:23:06.051Z,100480.97
2023-05-25T13:28:07.696Z,100478.22
2023-05-25T13:33:09.695Z,100469.09
2023-05-25T13:38:11.558Z,100461.50
2023-05-25T13:43:13.209Z,100463.50
2023-05-25T13:48:14.938Z,100456.75
2023-05-25T13:53:16.936Z,100451.06
2023-05-25T13:58:18.584Z,100451.13
2023-05-25T14:03:20.429Z,100447.34
2023-05-25T14:08:22.538Z,100453.44
2023-05-25T14:13:24.197Z,100443.91
2023-05-25T14:18:25.877Z,100446.34
2023-05-25T14:23:27.539Z,100443.63
2023-05-25T14:28:29.180Z,100447.41
2023-05-25T14:33:30.869Z,100437.53
2023-05-25T14:38:32.815Z,100432.97
2023-05-25T14:43:35.009Z,100438.03
2023-05-25T14:48:36.718Z,100433.94
2023-05-25T14:53:38.595Z,100434.25
2023-05-25T14:58:40.444Z,100432.41
2023-05-25T15:03:42.308Z,100434.13
2023-05-25T15:08:44.063Z,100435.84
2023-05-25T15:13:46.108Z,100443.69
2023-05-25T15:18:47.756Z,100433.63
2023-05-25T15:23:49.576Z,100440.94
2023-05-25T15:28:51.217Z,100427.22
2023-05-25T15:33:58.225Z,100438.25
2023-05-25T15:39:00.783Z,100430.50
2023-05-25T15:44:02.475Z,100413.34
2023-05-25T15:49:10.771Z,100424.38
2023-05-25T15:54:14.743Z,100413.31
2023-05-25T15:59:16.680Z,100411.66
2023-05-25T16:04:19.334Z,100403.41
2023-05-25T16:09:21.066Z,100392.00
2023-05-25T16:14:22.717Z,100389.41
2023-05-25T16:19:24.698Z,100391.38
2023-05-25T16:24:27.003Z,100387.28
2023-05-25T16:29:29.242Z,100390.47
2023-05-25T16:34:31.178Z,100395.13
2023-05-25T16:39:33.451Z,100392.28
2023-05-25T16:44:35.118Z,100393.31
2023-05-25T16:49:36.760Z,100387.19
2023-05-25T16:54:38.741Z,100386.47
2023-05-25T16:59:41.021Z,100380.25
2023-05-25T17:04:42.732Z,100384.81
2023-05-25T17:09:44.374Z,100382.63
2023-05-25T17:14:48.329Z,100399.41
2023-05-25T17:19:49.998Z,100392.91
2023-05-25T17:24:51.661Z,100391.84
2023-05-25T17:29:53.308Z,100392.41
2023-05-25T17:34:54.962Z,100401.63
2023-05-25T17:39:56.666Z,100403.56
2023-05-25T17:44:58.359Z,100392.69
2023-05-25T17:49:59.990Z,100394.56
2023-05-25T17:55:01.716Z,100391.25
2023-05-25T18:00:04.209Z,100400.06
2023-05-25T18:05:13.997Z,100397.41
2023-05-25T18:10:15.819Z,100393.66
2023-05-25T18:15:17.801Z,100401.41
2023-05-25T18:20:19.566Z,100410.63
2023-05-25T18:25:21.371Z,100418.13
2023-05-25T18:30:23.021Z,100413.31
2023-05-25T18:35:24.728Z,100417.63
2023-05-25T18:40:26.365Z,100423.25
2023-05-25T18:45:28.118Z,100426.88
2023-05-25T18:50:29.753Z,100424.97
2023-05-25T18:55:31.394Z,100428.28
2023-05-25T19:00:33.122Z,100436.28
2023-05-25T19:05:35.004Z,100440.19
2023-05-25T19:10:36.684Z,100448.59
2023-05-25T19:15:38.308Z,100448.97
2023-05-25T19:20:39.974Z,100459.16
2023-05-25T19:25:41.613Z,100466.44
2023-05-25T19:30:43.296Z,100471.25
2023-05-25T19:35:45.345Z,100480.13
2023-05-25T19:40:47.230Z,100487.34
2023-05-25T19:45:48.914Z,100486.81
2023-05-25T19:50:50.694Z,100490.06
2023-05-25T19:55:52.410Z,100489.16
2023-05-25T20:00:54.173Z,100493.28
2023-05-25T20:05:56.414Z,100499.03
2023-05-25T20:10:58.112Z,100504.44
2023-05-25T20:15:59.852Z,100508.63
2023-05-25T20:21:01.608Z,100510.88
2023-05-25T20:26:03.242Z,100521.72
2023-05-25T20:31:06.486Z,100520.88
2023-05-25T20:36:08.153Z,100523.00
2023-05-25T20:41:09.834Z,100528.13
2023-05-25T20:46:11.604Z,100530.94
2023-05-25T20:51:14.343Z,100530.28
2023-05-25T20:56:16.205Z,100530.97
2023-05-25T21:01:17.886Z,100540.28
2023-05-25T21:06:19.636Z,100537.41
2023-05-25T21:11:22.093Z,100552.19
2023-05-25T21:16:23.772Z,100549.84
2023-05-25T21:21:25.727Z,100562.16
2023-05-25T21:26:31.049Z,100566.34
2023-05-25T21:31:32.808Z,100569.19
2023-05-25T21:36:34.550Z,100570.91
2023-05-25T21:41:36.230Z,100575.94
2023-05-25T21:46:38.835Z,100561.22
2023-05-25T21:51:40.545Z,100578.88
2023-05-25T21:56:42.253Z,100582.38
2023-05-25T22:01:43.958Z,100576.88
2023-05-25T22:06:45.701Z,100580.31
2023-05-25T22:11:47.344Z,100590.41
2023-05-25T22:16:49.035Z,100597.31
2023-05-25T22:21:50.746Z,100588.56
2023-05-25T22:26:52.592Z,100590.06
2023-05-25T22:31:54.255Z,100604.38
2023-05-25T22:36:56.089Z,100603.59
2023-05-25T22:41:57.736Z,100604.50
2023-05-25T22:46:59.382Z,100604.22
2023-05-25T22:52:01.142Z,100620.63
2023-05-25T22:57:02.937Z,100617.25
2023-05-25T23:02:04.946Z,100627.78
2023-05-25T23:07:06.641Z,100626.47
2023-05-25T23:12:08.361Z,100620.63
2023-05-25T23:17:10.485Z,100619.34
2023-05-25T23:22:12.132Z,100622.25
2023-05-25T23:27:13.821Z,100619.41
2023-05-25T23:32:15.537Z,100626.63
2023-05-25T23:37:17.289Z,100619.84
2023-05-25T23:42:18.929Z,100622.84
2023-05-25T23:47:20.564Z,100617.25
2023-05-25T23:52:22.210Z,100627.19
2023-05-25T23:57:23.864Z,100627.97
